Share

Williford, AR (72482)

Rural Ravenden Springs (KARRAVEN1) Elev 577 ft | 36.31 °N, 91.20 °W | Change Station

Current weather conditions updated 9 seconds ago

Clear
Clear
55.6 °F
Feels Like 55.6 °F
N
0.0
Wind Variable Wind from SE
Gusts 0.0 mph
Sunrise 6:29 AM
Sunset 7:41 PM
Moon Waning Gibbous

Tomorrow is forecast to be Warmer than today.

Pressure 30.23 in
Visibility 10.0 miles
Clouds Clear
Dew Point 23 °F
Humidity 28%
Rainfall 0.00 in
Snow Depth Not available.
UV 0 out of 16
Pollen 9.70 out of 12
Air Quality Not available.
Flu Activity Sporadic
METAR KARG 180315Z AUTO 09004KT 10SM CLR 14/09 A3023 RMK AO1

More Conditions Fewer Conditions

Pressure 30.23 in
Visibility 10.0 miles
Clouds Clear
Dew Point 23 °F
Humidity 28%
Rainfall 0.00 in
Snow Depth Not available.
UV 0 out of 16
Pollen 9.70 out of 12
Air Quality Not available.
Flu Activity Sporadic
METAR KARG 180315Z AUTO 09004KT 10SM CLR 14/09 A3023 RMK AO1

More Conditions Fewer Conditions

10-Day Forecast

Almanac

Astronomy

Apr. 17, 2014 Rise Set
Actual Time 6:29 AM CDT 7:41 PM CDT
Civil Twilight 6:02 AM CDT 8:08 PM CDT
Nautical Twilight 5:31 AM CDT 8:39 PM CDT
Astronomical Twilight 4:58 AM CDT 9:13 PM CDT
Moon 10:23 PM CDT (4/17) 8:04 AM CDT (4/17)
Length of Visible Light 14h 05m
Length of Day
13h 11m
Tomorrow will be 2m 11s longer.
Waning Gibbous, 91% of the Moon is Illuminated
Today
Waning Gibbous
Apr 22
Last Quarter
Apr 29
New
May 6
First Quarter
May 14
Full

Today's Extremes

State Highs State Lows

Community

  • SUNRISE THROUGH THE TREES.
    SUNRISE THROUGH THE TREES.
  • Dog Wood Blossoms
    Dog Wood Blossoms
  • Morning Light
    Morning Light
  • New Day
    New Day
  • Lake Michigan Sunrise
    Lake Michigan Sunrise

WunderPhotos

Upload Photos

1,702,235 photos uploaded!

WunderBlogs® & News

Nearby

Snow Depth

Station Depth Elevation
No new snow has been reported.

Coastal Water Temperatures

Place Temperature
No Stations Reporting

Earthquake Activity

City Distance Mag. Time & Date
No recent earthquake activity has been reported nearby.
Minimum magnitude displayed is 2.5.

Nearby Weather Stations

Station Location Temp. Dew Point Humidity Wind Precip. Elev Updated Type
Rural Ravenden Springs, Ravenden Springs, AR 55.6 °F 23 °F 28% SE  at  0.0 mph 0.00 in / hr 577 ft 10:23 PM CDT Rapid Fire
RAWS EVENING SHADE AR, Evening Shade, AR 58 °F 39 °F 50% ESE  at  2 mph 0.00 in / hr 540 ft 9:10 PM CDT MADIS
Moonstone Blvd, Horseshoe Bend, AR 55.9 °F 42 °F 59% South  at  1.0 mph 0.00 in / hr 722 ft 10:23 PM CDT Rapid Fire

Show More Stations Show Fewer Stations

What do you think?

We're not finished. Please let us know what you like, what you don't like, and what you are still missing.